sensor_id;sensor_type;location;lat;lon;timestamp;P1;durP1;ratioP1;P2;durP2;ratioP2
52322;SDS011;38263;52.920;6.238;2022-07-06T00:00:42;6.15;;;1.80;;
52322;SDS011;38263;52.920;6.238;2022-07-06T00:03:07;3.38;;;1.23;;
52322;SDS011;38263;52.920;6.238;2022-07-06T00:05:33;3.20;;;1.42;;
52322;SDS011;38263;52.920;6.238;2022-07-06T00:07:58;2.85;;;1.48;;
52322;SDS011;38263;52.920;6.238;2022-07-06T00:10:24;6.43;;;1.90;;
52322;SDS011;38263;52.920;6.238;2022-07-06T00:12:49;5.55;;;1.95;;
52322;SDS011;38263;52.920;6.238;2022-07-06T00:15:15;5.43;;;1.42;;
52322;SDS011;38263;52.920;6.238;2022-07-06T00:17:40;2.85;;;1.30;;
52322;SDS011;38263;52.920;6.238;2022-07-06T00:20:06;9.65;;;2.15;;
52322;SDS011;38263;52.920;6.238;2022-07-06T00:22:32;4.28;;;1.58;;
52322;SDS011;38263;52.920;6.238;2022-07-06T00:24:58;7.05;;;1.75;;
52322;SDS011;38263;52.920;6.238;2022-07-06T00:27:24;5.28;;;1.60;;
52322;SDS011;38263;52.920;6.238;2022-07-06T00:29:49;6.72;;;1.85;;
52322;SDS011;38263;52.920;6.238;2022-07-06T00:32:15;3.33;;;1.38;;
52322;SDS011;38263;52.920;6.238;2022-07-06T00:34:40;7.32;;;1.58;;
52322;SDS011;38263;52.920;6.238;2022-07-06T00:37:06;3.88;;;1.20;;
52322;SDS011;38263;52.920;6.238;2022-07-06T00:39:32;6.85;;;1.33;;
52322;SDS011;38263;52.920;6.238;2022-07-06T00:41:58;3.38;;;1.40;;
52322;SDS011;38263;52.920;6.238;2022-07-06T00:44:24;5.07;;;1.42;;
52322;SDS011;38263;52.920;6.238;2022-07-06T00:46:50;5.00;;;1.55;;
52322;SDS011;38263;52.920;6.238;2022-07-06T00:49:15;6.35;;;1.60;;
52322;SDS011;38263;52.920;6.238;2022-07-06T00:52:00;4.38;;;1.90;;
52322;SDS011;38263;52.920;6.238;2022-07-06T00:54:26;6.28;;;1.95;;
52322;SDS011;38263;52.920;6.238;2022-07-06T00:56:55;3.47;;;1.40;;
52322;SDS011;38263;52.920;6.238;2022-07-06T00:59:20;2.58;;;1.58;;
52322;SDS011;38263;52.920;6.238;2022-07-06T01:01:47;3.03;;;1.33;;
52322;SDS011;38263;52.920;6.238;2022-07-06T01:04:12;4.85;;;1.40;;
52322;SDS011;38263;52.920;6.238;2022-07-06T01:06:38;7.82;;;1.50;;
52322;SDS011;38263;52.920;6.238;2022-07-06T01:09:04;5.60;;;1.50;;
52322;SDS011;38263;52.920;6.238;2022-07-06T01:11:30;2.97;;;1.58;;
52322;SDS011;38263;52.920;6.238;2022-07-06T01:13:56;3.67;;;1.52;;
52322;SDS011;38263;52.920;6.238;2022-07-06T01:16:24;5.55;;;1.55;;
52322;SDS011;38263;52.920;6.238;2022-07-06T01:18:50;4.78;;;1.83;;
52322;SDS011;38263;52.920;6.238;2022-07-06T01:21:15;3.92;;;1.55;;
52322;SDS011;38263;52.920;6.238;2022-07-06T01:23:42;4.53;;;1.60;;
52322;SDS011;38263;52.920;6.238;2022-07-06T01:26:27;5.03;;;1.90;;
52322;SDS011;38263;52.920;6.238;2022-07-06T01:28:52;5.80;;;2.03;;
52322;SDS011;38263;52.920;6.238;2022-07-06T01:31:22;3.08;;;1.63;;
52322;SDS011;38263;52.920;6.238;2022-07-06T01:33:49;4.55;;;1.90;;
52322;SDS011;38263;52.920;6.238;2022-07-06T01:36:17;4.90;;;1.63;;
52322;SDS011;38263;52.920;6.238;2022-07-06T01:38:43;2.05;;;1.42;;
52322;SDS011;38263;52.920;6.238;2022-07-06T01:41:17;6.90;;;1.93;;
52322;SDS011;38263;52.920;6.238;2022-07-06T01:43:43;3.90;;;1.77;;
52322;SDS011;38263;52.920;6.238;2022-07-06T01:46:09;4.63;;;1.65;;
52322;SDS011;38263;52.920;6.238;2022-07-06T01:48:35;3.10;;;1.67;;
52322;SDS011;38263;52.920;6.238;2022-07-06T01:51:01;4.03;;;1.95;;
52322;SDS011;38263;52.920;6.238;2022-07-06T01:53:27;4.63;;;1.50;;
52322;SDS011;38263;52.920;6.238;2022-07-06T01:55:52;4.43;;;1.65;;
52322;SDS011;38263;52.920;6.238;2022-07-06T01:58:18;4.18;;;1.70;;
52322;SDS011;38263;52.920;6.238;2022-07-06T02:00:44;2.83;;;1.13;;
52322;SDS011;38263;52.920;6.238;2022-07-06T02:03:10;3.25;;;1.30;;
52322;SDS011;38263;52.920;6.238;2022-07-06T02:05:35;5.75;;;1.60;;
52322;SDS011;38263;52.920;6.238;2022-07-06T02:08:01;3.97;;;1.50;;
52322;SDS011;38263;52.920;6.238;2022-07-06T02:10:26;4.97;;;1.23;;
52322;SDS011;38263;52.920;6.238;2022-07-06T02:12:52;2.95;;;1.30;;
52322;SDS011;38263;52.920;6.238;2022-07-06T02:15:17;3.65;;;1.50;;
52322;SDS011;38263;52.920;6.238;2022-07-06T02:17:43;2.92;;;1.40;;
52322;SDS011;38263;52.920;6.238;2022-07-06T02:20:09;2.72;;;1.33;;
52322;SDS011;38263;52.920;6.238;2022-07-06T02:22:35;4.75;;;1.63;;
52322;SDS011;38263;52.920;6.238;2022-07-06T02:25:00;3.75;;;1.50;;
52322;SDS011;38263;52.920;6.238;2022-07-06T02:27:26;4.07;;;1.30;;
52322;SDS011;38263;52.920;6.238;2022-07-06T02:29:51;3.03;;;1.45;;
52322;SDS011;38263;52.920;6.238;2022-07-06T02:32:17;3.72;;;1.77;;
52322;SDS011;38263;52.920;6.238;2022-07-06T02:34:43;6.25;;;1.60;;
52322;SDS011;38263;52.920;6.238;2022-07-06T02:37:08;5.75;;;1.52;;
52322;SDS011;38263;52.920;6.238;2022-07-06T02:39:34;5.97;;;1.40;;
52322;SDS011;38263;52.920;6.238;2022-07-06T02:41:59;2.40;;;1.33;;
52322;SDS011;38263;52.920;6.238;2022-07-06T02:44:25;3.60;;;1.38;;
52322;SDS011;38263;52.920;6.238;2022-07-06T02:46:51;6.78;;;1.45;;
52322;SDS011;38263;52.920;6.238;2022-07-06T02:49:16;4.32;;;1.58;;
52322;SDS011;38263;52.920;6.238;2022-07-06T02:51:42;3.63;;;1.40;;
52322;SDS011;38263;52.920;6.238;2022-07-06T02:54:07;8.80;;;1.90;;
52322;SDS011;38263;52.920;6.238;2022-07-06T02:56:33;4.63;;;1.23;;
52322;SDS011;38263;52.920;6.238;2022-07-06T02:58:58;4.05;;;1.17;;
52322;SDS011;38263;52.920;6.238;2022-07-06T03:01:24;5.07;;;1.13;;
52322;SDS011;38263;52.920;6.238;2022-07-06T03:03:50;4.47;;;1.05;;
52322;SDS011;38263;52.920;6.238;2022-07-06T03:06:15;3.75;;;1.00;;
52322;SDS011;38263;52.920;6.238;2022-07-06T03:08:41;5.45;;;1.20;;
52322;SDS011;38263;52.920;6.238;2022-07-06T03:11:06;2.15;;;0.85;;
52322;SDS011;38263;52.920;6.238;2022-07-06T03:13:32;2.60;;;1.15;;
52322;SDS011;38263;52.920;6.238;2022-07-06T03:15:58;4.90;;;0.80;;
52322;SDS011;38263;52.920;6.238;2022-07-06T03:18:23;4.93;;;1.08;;
52322;SDS011;38263;52.920;6.238;2022-07-06T03:20:49;2.67;;;0.93;;
52322;SDS011;38263;52.920;6.238;2022-07-06T03:23:14;3.67;;;1.23;;
52322;SDS011;38263;52.920;6.238;2022-07-06T03:25:40;4.47;;;1.13;;
52322;SDS011;38263;52.920;6.238;2022-07-06T03:28:05;3.55;;;1.38;;
52322;SDS011;38263;52.920;6.238;2022-07-06T03:30:31;3.42;;;1.05;;
52322;SDS011;38263;52.920;6.238;2022-07-06T03:32:56;3.72;;;1.35;;
52322;SDS011;38263;52.920;6.238;2022-07-06T03:35:22;4.13;;;1.30;;
52322;SDS011;38263;52.920;6.238;2022-07-06T03:37:48;4.45;;;1.20;;
52322;SDS011;38263;52.920;6.238;2022-07-06T03:40:14;5.93;;;1.20;;
52322;SDS011;38263;52.920;6.238;2022-07-06T03:42:40;4.07;;;0.93;;
52322;SDS011;38263;52.920;6.238;2022-07-06T03:45:06;7.15;;;1.33;;
52322;SDS011;38263;52.920;6.238;2022-07-06T03:47:32;3.03;;;1.05;;
52322;SDS011;38263;52.920;6.238;2022-07-06T03:49:57;2.30;;;0.80;;
52322;SDS011;38263;52.920;6.238;2022-07-06T03:52:23;4.00;;;1.05;;
52322;SDS011;38263;52.920;6.238;2022-07-06T03:54:48;3.60;;;0.90;;
52322;SDS011;38263;52.920;6.238;2022-07-06T03:57:14;5.32;;;1.30;;
52322;SDS011;38263;52.920;6.238;2022-07-06T03:59:40;5.47;;;1.10;;
52322;SDS011;38263;52.920;6.238;2022-07-06T04:02:06;2.30;;;0.85;;
52322;SDS011;38263;52.920;6.238;2022-07-06T04:04:33;3.67;;;0.85;;
52322;SDS011;38263;52.920;6.238;2022-07-06T04:06:59;3.50;;;0.90;;
52322;SDS011;38263;52.920;6.238;2022-07-06T04:09:25;5.45;;;1.35;;
52322;SDS011;38263;52.920;6.238;2022-07-06T04:11:51;2.75;;;0.75;;
52322;SDS011;38263;52.920;6.238;2022-07-06T04:14:17;4.85;;;1.00;;
52322;SDS011;38263;52.920;6.238;2022-07-06T04:16:43;2.50;;;0.90;;
52322;SDS011;38263;52.920;6.238;2022-07-06T04:19:09;2.58;;;1.10;;
52322;SDS011;38263;52.920;6.238;2022-07-06T04:21:34;2.17;;;0.95;;
52322;SDS011;38263;52.920;6.238;2022-07-06T04:24:00;2.03;;;0.80;;
52322;SDS011;38263;52.920;6.238;2022-07-06T04:26:25;2.83;;;1.00;;
52322;SDS011;38263;52.920;6.238;2022-07-06T04:28:51;4.18;;;1.33;;
52322;SDS011;38263;52.920;6.238;2022-07-06T04:31:17;3.10;;;1.50;;
52322;SDS011;38263;52.920;6.238;2022-07-06T04:33:42;3.25;;;0.85;;
52322;SDS011;38263;52.920;6.238;2022-07-06T04:36:08;6.72;;;1.50;;
52322;SDS011;38263;52.920;6.238;2022-07-06T04:38:34;3.92;;;1.00;;
52322;SDS011;38263;52.920;6.238;2022-07-06T04:41:00;5.85;;;1.05;;
52322;SDS011;38263;52.920;6.238;2022-07-06T04:43:26;2.22;;;0.70;;
52322;SDS011;38263;52.920;6.238;2022-07-06T04:45:52;7.65;;;1.00;;
52322;SDS011;38263;52.920;6.238;2022-07-06T04:48:17;2.45;;;0.80;;
52322;SDS011;38263;52.920;6.238;2022-07-06T04:50:43;2.03;;;1.42;;
52322;SDS011;38263;52.920;6.238;2022-07-06T04:53:08;4.28;;;0.77;;
52322;SDS011;38263;52.920;6.238;2022-07-06T04:55:34;4.40;;;0.90;;
52322;SDS011;38263;52.920;6.238;2022-07-06T04:58:00;8.55;;;1.13;;
52322;SDS011;38263;52.920;6.238;2022-07-06T05:00:25;4.20;;;1.00;;
52322;SDS011;38263;52.920;6.238;2022-07-06T05:02:51;3.85;;;1.30;;
52322;SDS011;38263;52.920;6.238;2022-07-06T05:05:17;9.77;;;1.40;;
52322;SDS011;38263;52.920;6.238;2022-07-06T05:07:42;11.43;;;1.38;;
52322;SDS011;38263;52.920;6.238;2022-07-06T05:10:08;10.02;;;1.17;;
52322;SDS011;38263;52.920;6.238;2022-07-06T05:12:35;2.72;;;0.60;;
52322;SDS011;38263;52.920;6.238;2022-07-06T05:15:01;6.38;;;0.93;;
52322;SDS011;38263;52.920;6.238;2022-07-06T05:17:27;4.70;;;0.70;;
52322;SDS011;38263;52.920;6.238;2022-07-06T05:19:53;4.10;;;0.90;;
52322;SDS011;38263;52.920;6.238;2022-07-06T05:22:18;2.13;;;0.80;;
52322;SDS011;38263;52.920;6.238;2022-07-06T05:24:44;6.03;;;1.20;;
52322;SDS011;38263;52.920;6.238;2022-07-06T05:27:10;3.42;;;0.93;;
52322;SDS011;38263;52.920;6.238;2022-07-06T05:29:35;3.97;;;0.77;;
52322;SDS011;38263;52.920;6.238;2022-07-06T05:32:01;3.13;;;0.70;;
52322;SDS011;38263;52.920;6.238;2022-07-06T05:34:27;3.25;;;0.63;;
52322;SDS011;38263;52.920;6.238;2022-07-06T05:36:53;5.97;;;0.82;;
52322;SDS011;38263;52.920;6.238;2022-07-06T05:39:18;5.00;;;0.75;;
52322;SDS011;38263;52.920;6.238;2022-07-06T05:41:46;6.82;;;1.00;;
52322;SDS011;38263;52.920;6.238;2022-07-06T05:44:12;5.15;;;1.10;;
52322;SDS011;38263;52.920;6.238;2022-07-06T05:46:38;2.88;;;0.63;;
52322;SDS011;38263;52.920;6.238;2022-07-06T05:49:03;5.35;;;1.13;;
52322;SDS011;38263;52.920;6.238;2022-07-06T05:51:47;5.13;;;1.00;;
52322;SDS011;38263;52.920;6.238;2022-07-06T05:54:14;7.97;;;1.13;;
52322;SDS011;38263;52.920;6.238;2022-07-06T05:56:40;2.55;;;0.70;;
52322;SDS011;38263;52.920;6.238;2022-07-06T05:59:05;5.10;;;0.90;;
52322;SDS011;38263;52.920;6.238;2022-07-06T06:01:31;5.25;;;1.05;;
52322;SDS011;38263;52.920;6.238;2022-07-06T06:03:56;3.00;;;0.88;;
52322;SDS011;38263;52.920;6.238;2022-07-06T06:06:22;2.88;;;1.17;;
52322;SDS011;38263;52.920;6.238;2022-07-06T06:08:48;2.75;;;0.73;;
52322;SDS011;38263;52.920;6.238;2022-07-06T06:11:13;1.88;;;0.80;;
52322;SDS011;38263;52.920;6.238;2022-07-06T06:13:39;3.30;;;0.80;;
52322;SDS011;38263;52.920;6.238;2022-07-06T06:16:04;5.70;;;1.02;;
52322;SDS011;38263;52.920;6.238;2022-07-06T06:18:30;7.07;;;1.52;;
52322;SDS011;38263;52.920;6.238;2022-07-06T06:20:55;6.18;;;1.48;;
52322;SDS011;38263;52.920;6.238;2022-07-06T06:23:21;5.40;;;0.80;;
52322;SDS011;38263;52.920;6.238;2022-07-06T06:25:47;5.50;;;0.80;;
52322;SDS011;38263;52.920;6.238;2022-07-06T06:28:12;2.63;;;0.75;;
52322;SDS011;38263;52.920;6.238;2022-07-06T06:30:38;5.65;;;0.77;;
52322;SDS011;38263;52.920;6.238;2022-07-06T06:33:22;2.90;;;0.93;;
52322;SDS011;38263;52.920;6.238;2022-07-06T06:35:51;1.30;;;0.73;;
52322;SDS011;38263;52.920;6.238;2022-07-06T06:38:18;5.88;;;1.00;;
52322;SDS011;38263;52.920;6.238;2022-07-06T06:40:45;7.07;;;0.80;;
52322;SDS011;38263;52.920;6.238;2022-07-06T06:43:11;2.42;;;0.85;;
52322;SDS011;38263;52.920;6.238;2022-07-06T06:45:37;4.65;;;1.08;;
52322;SDS011;38263;52.920;6.238;2022-07-06T06:48:03;4.05;;;1.10;;
52322;SDS011;38263;52.920;6.238;2022-07-06T06:50:29;4.85;;;1.08;;
52322;SDS011;38263;52.920;6.238;2022-07-06T06:52:54;2.80;;;1.00;;
52322;SDS011;38263;52.920;6.238;2022-07-06T06:55:20;3.17;;;0.90;;
52322;SDS011;38263;52.920;6.238;2022-07-06T06:57:45;4.82;;;0.80;;
52322;SDS011;38263;52.920;6.238;2022-07-06T07:00:12;8.68;;;1.67;;
52322;SDS011;38263;52.920;6.238;2022-07-06T07:02:38;4.05;;;0.90;;
52322;SDS011;38263;52.920;6.238;2022-07-06T07:05:04;5.78;;;1.23;;
52322;SDS011;38263;52.920;6.238;2022-07-06T07:07:30;9.10;;;2.13;;
52322;SDS011;38263;52.920;6.238;2022-07-06T07:09:56;4.82;;;1.02;;
52322;SDS011;38263;52.920;6.238;2022-07-06T07:12:21;3.83;;;0.73;;
52322;SDS011;38263;52.920;6.238;2022-07-06T07:14:47;3.58;;;0.95;;
52322;SDS011;38263;52.920;6.238;2022-07-06T07:17:13;6.38;;;1.52;;
52322;SDS011;38263;52.920;6.238;2022-07-06T07:19:39;5.22;;;0.75;;
52322;SDS011;38263;52.920;6.238;2022-07-06T07:22:05;6.38;;;0.80;;
52322;SDS011;38263;52.920;6.238;2022-07-06T07:24:31;3.90;;;0.60;;
52322;SDS011;38263;52.920;6.238;2022-07-06T07:26:57;2.50;;;0.75;;
52322;SDS011;38263;52.920;6.238;2022-07-06T07:29:22;5.00;;;0.90;;
52322;SDS011;38263;52.920;6.238;2022-07-06T07:31:48;3.80;;;0.77;;
52322;SDS011;38263;52.920;6.238;2022-07-06T07:34:13;5.72;;;0.70;;
52322;SDS011;38263;52.920;6.238;2022-07-06T07:36:39;5.40;;;0.85;;
52322;SDS011;38263;52.920;6.238;2022-07-06T07:39:05;3.80;;;0.70;;
52322;SDS011;38263;52.920;6.238;2022-07-06T07:41:30;2.53;;;0.60;;
52322;SDS011;38263;52.920;6.238;2022-07-06T07:43:56;5.00;;;0.80;;
52322;SDS011;38263;52.920;6.238;2022-07-06T07:46:22;8.73;;;1.23;;
52322;SDS011;38263;52.920;6.238;2022-07-06T07:48:47;2.20;;;0.50;;
52322;SDS011;38263;52.920;6.238;2022-07-06T07:51:13;3.25;;;0.50;;
52322;SDS011;38263;52.920;6.238;2022-07-06T07:53:38;5.57;;;1.02;;
52322;SDS011;38263;52.920;6.238;2022-07-06T07:56:04;4.63;;;0.60;;
52322;SDS011;38263;52.920;6.238;2022-07-06T07:58:30;3.97;;;0.50;;
52322;SDS011;38263;52.920;6.238;2022-07-06T08:00:55;2.45;;;0.50;;
52322;SDS011;38263;52.920;6.238;2022-07-06T08:03:21;4.35;;;0.50;;
52322;SDS011;38263;52.920;6.238;2022-07-06T08:05:46;4.03;;;0.35;;
52322;SDS011;38263;52.920;6.238;2022-07-06T08:08:14;1.95;;;0.45;;
52322;SDS011;38263;52.920;6.238;2022-07-06T08:10:40;1.77;;;0.40;;
52322;SDS011;38263;52.920;6.238;2022-07-06T08:13:06;1.63;;;0.40;;
52322;SDS011;38263;52.920;6.238;2022-07-06T08:15:32;4.63;;;0.63;;
52322;SDS011;38263;52.920;6.238;2022-07-06T08:17:59;3.53;;;0.52;;
52322;SDS011;38263;52.920;6.238;2022-07-06T08:20:24;6.78;;;1.08;;
52322;SDS011;38263;52.920;6.238;2022-07-06T08:22:50;3.10;;;0.65;;
52322;SDS011;38263;52.920;6.238;2022-07-06T08:25:16;2.20;;;0.70;;
52322;SDS011;38263;52.920;6.238;2022-07-06T08:27:42;1.73;;;0.40;;
52322;SDS011;38263;52.920;6.238;2022-07-06T08:30:08;3.33;;;0.50;;
52322;SDS011;38263;52.920;6.238;2022-07-06T08:32:36;2.72;;;0.75;;
52322;SDS011;38263;52.920;6.238;2022-07-06T08:35:04;3.20;;;0.50;;
52322;SDS011;38263;52.920;6.238;2022-07-06T08:37:30;3.63;;;0.43;;
52322;SDS011;38263;52.920;6.238;2022-07-06T08:39:56;2.20;;;0.55;;
52322;SDS011;38263;52.920;6.238;2022-07-06T08:42:21;4.05;;;0.45;;
52322;SDS011;38263;52.920;6.238;2022-07-06T08:44:54;0.45;;;0.32;;
52322;SDS011;38263;52.920;6.238;2022-07-06T08:47:23;1.92;;;0.40;;
52322;SDS011;38263;52.920;6.238;2022-07-06T08:49:51;2.15;;;0.60;;
52322;SDS011;38263;52.920;6.238;2022-07-06T08:52:17;2.70;;;0.43;;
52322;SDS011;38263;52.920;6.238;2022-07-06T08:54:43;4.28;;;0.30;;
52322;SDS011;38263;52.920;6.238;2022-07-06T08:57:09;2.95;;;0.45;;
52322;SDS011;38263;52.920;6.238;2022-07-06T08:59:35;2.05;;;0.40;;
52322;SDS011;38263;52.920;6.238;2022-07-06T09:02:02;3.28;;;0.30;;
52322;SDS011;38263;52.920;6.238;2022-07-06T09:04:28;1.63;;;0.35;;
52322;SDS011;38263;52.920;6.238;2022-07-06T09:06:56;3.40;;;0.73;;
52322;SDS011;38263;52.920;6.238;2022-07-06T09:09:23;2.50;;;0.63;;
52322;SDS011;38263;52.920;6.238;2022-07-06T09:11:49;4.75;;;0.43;;
52322;SDS011;38263;52.920;6.238;2022-07-06T09:14:15;1.95;;;0.40;;
52322;SDS011;38263;52.920;6.238;2022-07-06T09:16:41;2.20;;;0.50;;
52322;SDS011;38263;52.920;6.238;2022-07-06T09:19:08;5.47;;;1.00;;
52322;SDS011;38263;52.920;6.238;2022-07-06T09:21:35;3.47;;;0.40;;
52322;SDS011;38263;52.920;6.238;2022-07-06T09:24:02;2.10;;;0.30;;
52322;SDS011;38263;52.920;6.238;2022-07-06T09:26:31;2.70;;;0.40;;
52322;SDS011;38263;52.920;6.238;2022-07-06T09:28:58;3.08;;;0.40;;
52322;SDS011;38263;52.920;6.238;2022-07-06T09:31:24;3.80;;;0.50;;
52322;SDS011;38263;52.920;6.238;2022-07-06T09:34:04;2.15;;;0.47;;
52322;SDS011;38263;52.920;6.238;2022-07-06T09:36:42;3.35;;;0.40;;
52322;SDS011;38263;52.920;6.238;2022-07-06T09:39:28;2.13;;;0.40;;
52322;SDS011;38263;52.920;6.238;2022-07-06T09:41:58;3.92;;;0.43;;
52322;SDS011;38263;52.920;6.238;2022-07-06T09:44:31;2.42;;;0.30;;
52322;SDS011;38263;52.920;6.238;2022-07-06T09:47:02;3.65;;;0.45;;
52322;SDS011;38263;52.920;6.238;2022-07-06T09:49:30;1.90;;;0.57;;
52322;SDS011;38263;52.920;6.238;2022-07-06T09:51:56;3.33;;;0.60;;
52322;SDS011;38263;52.920;6.238;2022-07-06T09:54:23;2.40;;;0.57;;
52322;SDS011;38263;52.920;6.238;2022-07-06T09:56:50;4.70;;;0.43;;
52322;SDS011;38263;52.920;6.238;2022-07-06T09:59:18;4.38;;;0.82;;
52322;SDS011;38263;52.920;6.238;2022-07-06T10:01:46;2.05;;;0.40;;
52322;SDS011;38263;52.920;6.238;2022-07-06T10:04:12;3.05;;;0.38;;
52322;SDS011;38263;52.920;6.238;2022-07-06T10:06:39;1.98;;;0.45;;
52322;SDS011;38263;52.920;6.238;2022-07-06T10:09:07;3.10;;;0.40;;
52322;SDS011;38263;52.920;6.238;2022-07-06T10:11:34;2.40;;;0.43;;
52322;SDS011;38263;52.920;6.238;2022-07-06T10:14:03;3.45;;;0.40;;
52322;SDS011;38263;52.920;6.238;2022-07-06T10:16:31;4.60;;;0.55;;
52322;SDS011;38263;52.920;6.238;2022-07-06T10:19:03;1.02;;;0.38;;
52322;SDS011;38263;52.920;6.238;2022-07-06T10:21:30;4.40;;;1.23;;
52322;SDS011;38263;52.920;6.238;2022-07-06T10:23:56;2.00;;;0.63;;
52322;SDS011;38263;52.920;6.238;2022-07-06T10:26:25;2.92;;;0.80;;
52322;SDS011;38263;52.920;6.238;2022-07-06T10:28:51;2.83;;;0.40;;
52322;SDS011;38263;52.920;6.238;2022-07-06T10:31:17;4.30;;;0.63;;
52322;SDS011;38263;52.920;6.238;2022-07-06T10:33:44;4.20;;;0.43;;
52322;SDS011;38263;52.920;6.238;2022-07-06T10:36:10;2.63;;;0.60;;
52322;SDS011;38263;52.920;6.238;2022-07-06T10:38:37;4.07;;;0.50;;
52322;SDS011;38263;52.920;6.238;2022-07-06T10:41:03;3.30;;;0.40;;
52322;SDS011;38263;52.920;6.238;2022-07-06T10:43:38;3.47;;;0.40;;
52322;SDS011;38263;52.920;6.238;2022-07-06T10:46:08;1.60;;;0.38;;
52322;SDS011;38263;52.920;6.238;2022-07-06T10:48:45;2.05;;;0.50;;
52322;SDS011;38263;52.920;6.238;2022-07-06T10:51:22;4.68;;;0.40;;
52322;SDS011;38263;52.920;6.238;2022-07-06T10:53:56;3.00;;;0.50;;
52322;SDS011;38263;52.920;6.238;2022-07-06T10:56:32;0.85;;;0.40;;
52322;SDS011;38263;52.920;6.238;2022-07-06T10:59:13;3.70;;;0.40;;
52322;SDS011;38263;52.920;6.238;2022-07-06T11:01:39;2.13;;;0.50;;
52322;SDS011;38263;52.920;6.238;2022-07-06T11:04:06;2.42;;;0.45;;
52322;SDS011;38263;52.920;6.238;2022-07-06T11:06:39;3.70;;;0.50;;
52322;SDS011;38263;52.920;6.238;2022-07-06T11:09:10;5.28;;;1.70;;
52322;SDS011;38263;52.920;6.238;2022-07-06T11:14:06;3.72;;;0.57;;
52322;SDS011;38263;52.920;6.238;2022-07-06T11:16:36;1.30;;;0.40;;
52322;SDS011;38263;52.920;6.238;2022-07-06T11:19:25;3.78;;;0.82;;
52322;SDS011;38263;52.920;6.238;2022-07-06T11:21:52;1.20;;;0.47;;
52322;SDS011;38263;52.920;6.238;2022-07-06T11:24:22;2.47;;;0.50;;
52322;SDS011;38263;52.920;6.238;2022-07-06T11:26:50;4.93;;;0.40;;
52322;SDS011;38263;52.920;6.238;2022-07-06T11:29:17;2.20;;;0.43;;
52322;SDS011;38263;52.920;6.238;2022-07-06T11:31:47;3.85;;;0.43;;
52322;SDS011;38263;52.920;6.238;2022-07-06T11:34:17;4.32;;;0.45;;
52322;SDS011;38263;52.920;6.238;2022-07-06T11:36:45;3.60;;;0.60;;
52322;SDS011;38263;52.920;6.238;2022-07-06T11:39:11;2.40;;;0.40;;
52322;SDS011;38263;52.920;6.238;2022-07-06T11:41:38;2.83;;;0.40;;
52322;SDS011;38263;52.920;6.238;2022-07-06T11:44:03;3.05;;;0.82;;
52322;SDS011;38263;52.920;6.238;2022-07-06T11:46:30;2.33;;;0.40;;
52322;SDS011;38263;52.920;6.238;2022-07-06T11:49:03;2.97;;;0.50;;
52322;SDS011;38263;52.920;6.238;2022-07-06T11:51:30;4.20;;;0.45;;
52322;SDS011;38263;52.920;6.238;2022-07-06T11:54:00;2.55;;;0.40;;
52322;SDS011;38263;52.920;6.238;2022-07-06T11:56:27;2.35;;;0.30;;
52322;SDS011;38263;52.920;6.238;2022-07-06T11:58:54;3.53;;;0.35;;
52322;SDS011;38263;52.920;6.238;2022-07-06T12:01:25;1.33;;;0.40;;
52322;SDS011;38263;52.920;6.238;2022-07-06T12:03:52;3.08;;;0.50;;
52322;SDS011;38263;52.920;6.238;2022-07-06T12:06:22;0.82;;;0.20;;
52322;SDS011;38263;52.920;6.238;2022-07-06T12:08:58;2.47;;;0.30;;
52322;SDS011;38263;52.920;6.238;2022-07-06T12:11:28;1.90;;;0.25;;
52322;SDS011;38263;52.920;6.238;2022-07-06T12:13:56;3.33;;;0.30;;
52322;SDS011;38263;52.920;6.238;2022-07-06T12:16:44;4.35;;;0.45;;
52322;SDS011;38263;52.920;6.238;2022-07-06T12:19:11;3.08;;;0.30;;
52322;SDS011;38263;52.920;6.238;2022-07-06T12:21:44;6.50;;;0.50;;
52322;SDS011;38263;52.920;6.238;2022-07-06T12:24:17;3.78;;;0.40;;
52322;SDS011;38263;52.920;6.238;2022-07-06T12:26:44;2.78;;;0.40;;
52322;SDS011;38263;52.920;6.238;2022-07-06T12:29:10;2.22;;;0.20;;
52322;SDS011;38263;52.920;6.238;2022-07-06T12:31:43;1.35;;;0.20;;
52322;SDS011;38263;52.920;6.238;2022-07-06T12:36:45;6.40;;;0.50;;
52322;SDS011;38263;52.920;6.238;2022-07-06T12:39:15;1.98;;;0.35;;
52322;SDS011;38263;52.920;6.238;2022-07-06T12:41:49;2.17;;;0.40;;
52322;SDS011;38263;52.920;6.238;2022-07-06T12:44:18;8.32;;;0.65;;
52322;SDS011;38263;52.920;6.238;2022-07-06T12:46:46;3.25;;;0.50;;
52322;SDS011;38263;52.920;6.238;2022-07-06T12:49:16;2.20;;;0.40;;
52322;SDS011;38263;52.920;6.238;2022-07-06T12:54:34;2.70;;;0.43;;
52322;SDS011;38263;52.920;6.238;2022-07-06T12:57:17;18.65;;;1.55;;
52322;SDS011;38263;52.920;6.238;2022-07-06T13:05:10;5.40;;;0.47;;
52322;SDS011;38263;52.920;6.238;2022-07-06T13:07:38;5.50;;;0.80;;
52322;SDS011;38263;52.920;6.238;2022-07-06T13:10:13;3.38;;;0.50;;
52322;SDS011;38263;52.920;6.238;2022-07-06T13:12:39;1.90;;;0.30;;
52322;SDS011;38263;52.920;6.238;2022-07-06T13:15:06;2.42;;;0.30;;
52322;SDS011;38263;52.920;6.238;2022-07-06T13:17:33;2.95;;;1.27;;
52322;SDS011;38263;52.920;6.238;2022-07-06T13:19:59;2.13;;;0.25;;
52322;SDS011;38263;52.920;6.238;2022-07-06T13:22:24;1.75;;;0.55;;
52322;SDS011;38263;52.920;6.238;2022-07-06T13:24:50;3.20;;;0.77;;
52322;SDS011;38263;52.920;6.238;2022-07-06T13:27:16;10.77;;;0.93;;
52322;SDS011;38263;52.920;6.238;2022-07-06T13:29:41;4.47;;;0.75;;
52322;SDS011;38263;52.920;6.238;2022-07-06T13:32:07;1.30;;;0.68;;
52322;SDS011;38263;52.920;6.238;2022-07-06T13:34:33;28.40;;;2.30;;
52322;SDS011;38263;52.920;6.238;2022-07-06T13:37:00;6.07;;;0.45;;
52322;SDS011;38263;52.920;6.238;2022-07-06T13:39:26;2.78;;;0.40;;
52322;SDS011;38263;52.920;6.238;2022-07-06T13:41:52;3.58;;;0.30;;
52322;SDS011;38263;52.920;6.238;2022-07-06T13:44:18;2.63;;;0.40;;
52322;SDS011;38263;52.920;6.238;2022-07-06T13:46:44;3.10;;;0.40;;
52322;SDS011;38263;52.920;6.238;2022-07-06T13:49:10;4.00;;;0.50;;
52322;SDS011;38263;52.920;6.238;2022-07-06T13:51:36;3.40;;;0.60;;
52322;SDS011;38263;52.920;6.238;2022-07-06T13:54:02;2.88;;;0.45;;
52322;SDS011;38263;52.920;6.238;2022-07-06T13:56:28;2.20;;;0.50;;
52322;SDS011;38263;52.920;6.238;2022-07-06T13:58:54;3.75;;;0.50;;
52322;SDS011;38263;52.920;6.238;2022-07-06T14:01:20;3.58;;;0.30;;
52322;SDS011;38263;52.920;6.238;2022-07-06T14:03:46;4.43;;;0.60;;
52322;SDS011;38263;52.920;6.238;2022-07-06T14:06:12;5.03;;;0.30;;
52322;SDS011;38263;52.920;6.238;2022-07-06T14:08:38;1.98;;;0.47;;
52322;SDS011;38263;52.920;6.238;2022-07-06T14:11:05;2.50;;;0.57;;
52322;SDS011;38263;52.920;6.238;2022-07-06T14:13:32;3.85;;;0.40;;
52322;SDS011;38263;52.920;6.238;2022-07-06T14:15:58;3.65;;;0.63;;
52322;SDS011;38263;52.920;6.238;2022-07-06T14:18:24;2.20;;;0.55;;
52322;SDS011;38263;52.920;6.238;2022-07-06T14:20:50;3.35;;;0.47;;
52322;SDS011;38263;52.920;6.238;2022-07-06T14:23:18;2.42;;;0.40;;
52322;SDS011;38263;52.920;6.238;2022-07-06T14:25:44;1.85;;;0.40;;
52322;SDS011;38263;52.920;6.238;2022-07-06T14:28:10;3.83;;;0.40;;
52322;SDS011;38263;52.920;6.238;2022-07-06T14:30:38;1.27;;;0.45;;
52322;SDS011;38263;52.920;6.238;2022-07-06T14:33:06;4.47;;;0.50;;
52322;SDS011;38263;52.920;6.238;2022-07-06T14:35:37;6.57;;;0.70;;
52322;SDS011;38263;52.920;6.238;2022-07-06T14:38:05;12.55;;;0.80;;
52322;SDS011;38263;52.920;6.238;2022-07-06T14:40:32;7.88;;;1.30;;
52322;SDS011;38263;52.920;6.238;2022-07-06T14:42:58;4.25;;;0.60;;
52322;SDS011;38263;52.920;6.238;2022-07-06T14:45:25;3.38;;;0.60;;
52322;SDS011;38263;52.920;6.238;2022-07-06T14:47:51;13.20;;;1.70;;
52322;SDS011;38263;52.920;6.238;2022-07-06T14:50:16;2.10;;;0.50;;
52322;SDS011;38263;52.920;6.238;2022-07-06T14:52:42;5.95;;;0.90;;
52322;SDS011;38263;52.920;6.238;2022-07-06T14:55:08;5.00;;;0.60;;
52322;SDS011;38263;52.920;6.238;2022-07-06T14:57:34;3.95;;;0.43;;
52322;SDS011;38263;52.920;6.238;2022-07-06T15:00:00;2.97;;;0.75;;